This is the latest recevied weather packets stored in our database for station/object W7MKM-13. If no packets are shown the sender has not sent any weather packets the latest 10 day(s).
| Time | Temp. | Humidity | Pressure | Rain* | Wind** | Luminosity | Snow |
|---|---|---|---|---|---|---|---|
| 1777491317 | 16.11° C | 27% | 1020.6 hPa | 0 mm | - | 1063 W/m² | - |
| 1777491017 | 16.11° C | 27% | 1020.7 hPa | 0 mm | - | 1087 W/m² | - |
| 1777490716 | 16.11° C | 27% | 1020.8 hPa | 0 mm | - | 930 W/m² | - |
| 1777489516 | 16.11° C | 26% | 1021.3 hPa | 0 mm | - | 691 W/m² | - |
| 1777489216 | 15.56° C | 27% | 1021 hPa | 0 mm | - | 861 W/m² | - |
| 1777487417 | 15.56° C | 26% | 1021.5 hPa | 0 mm | - | 923 W/m² | - |
| 1777483816 | 14.44° C | 35% | 1021.9 hPa | 0 mm | - | 891 W/m² | - |
| 1777483516 | 14.44° C | 37% | 1022 hPa | 0 mm | - | 878 W/m² | - |
| 1777482916 | 13.89° C | 39% | 1022.1 hPa | 0 mm | - | 855 W/m² | - |
| 1777478716 | 11.67° C | 47% | 1022.5 hPa | 0 mm | - | 670 W/m² | - |
| 1777471216 | 4.44° C | 78% | 1021.8 hPa | 0 mm | - | 231 W/m² | - |
| 1777469416 | 1.67° C | 84% | 1021.1 hPa | 0 mm | - | 105 W/m² | - |
| 1777466116 | 0.56° C | 83% | 1020.5 hPa | 0 mm | - | 6 W/m² | - |
| 1777464616 | 0.56° C | 83% | 1020.2 hPa | 0 mm | - | 0 W/m² | - |
| 1777461917 | 1.11° C | 82% | 1020.6 hPa | 0 mm | - | 0 W/m² | - |
| 1777459817 | 1.11° C | 81% | 1020.3 hPa | 0 mm | - | 0 W/m² | - |
| 1777450816 | 3.33° C | 73% | 1021.1 hPa | 0 mm | - | 0 W/m² | - |
| 1777449017 | 3.33° C | 74% | 1021.3 hPa | 0 mm | - | 0 W/m² | - |
| 1777446316 | 4.44° C | 68% | 1021.4 hPa | 0 mm | - | 0 W/m² | - |
| 1777445416 | 5° C | 67% | 1021.6 hPa | 0 mm | - | 0 W/m² | - |
| 1777443916 | 5.56° C | 66% | 1021.4 hPa | 0 mm | - | 0 W/m² | - |
| 1777439417 | 6.11° C | 65% | 1021.7 hPa | 0 mm | - | 0 W/m² | - |
| 1777438817 | 6.11° C | 65% | 1021.3 hPa | 0 mm | - | 0 W/m² | - |
| 1777436417 | 7.22° C | 63% | 1021.3 hPa | 0 mm | - | 0 W/m² | - |
| 1777435217 | 7.22° C | 62% | 1021.2 hPa | 0 mm | - | 0 W/m² | - |
* Rain latest hour (hover to see other rain measurements)
** Current wind speed in m/s (hover to see current wind gust speed)